sensor_id;sensor_type;location;lat;lon;timestamp;P1;durP1;ratioP1;P2;durP2;ratioP2
68089;SDS011;54880;50.986;6.990;2024-02-15T00:02:19;7.90;;;2.50;;
68089;SDS011;54880;50.986;6.990;2024-02-15T00:04:45;6.53;;;2.37;;
68089;SDS011;54880;50.986;6.990;2024-02-15T00:07:10;9.85;;;2.80;;
68089;SDS011;54880;50.986;6.990;2024-02-15T00:09:35;8.20;;;2.30;;
68089;SDS011;54880;50.986;6.990;2024-02-15T00:12:01;6.67;;;2.73;;
68089;SDS011;54880;50.986;6.990;2024-02-15T00:14:27;6.32;;;2.75;;
68089;SDS011;54880;50.986;6.990;2024-02-15T00:16:56;10.10;;;3.50;;
68089;SDS011;54880;50.986;6.990;2024-02-15T00:19:22;7.97;;;2.40;;
68089;SDS011;54880;50.986;6.990;2024-02-15T00:21:48;9.27;;;2.53;;
68089;SDS011;54880;50.986;6.990;2024-02-15T00:24:13;9.37;;;2.70;;
68089;SDS011;54880;50.986;6.990;2024-02-15T00:26:39;6.93;;;2.58;;
68089;SDS011;54880;50.986;6.990;2024-02-15T00:29:05;7.53;;;2.80;;
68089;SDS011;54880;50.986;6.990;2024-02-15T00:31:30;6.90;;;2.50;;
68089;SDS011;54880;50.986;6.990;2024-02-15T00:33:55;7.37;;;2.73;;
68089;SDS011;54880;50.986;6.990;2024-02-15T00:36:21;7.13;;;3.10;;
68089;SDS011;54880;50.986;6.990;2024-02-15T00:38:46;8.57;;;3.27;;
68089;SDS011;54880;50.986;6.990;2024-02-15T00:41:11;9.13;;;2.90;;
68089;SDS011;54880;50.986;6.990;2024-02-15T00:43:37;8.87;;;3.10;;
68089;SDS011;54880;50.986;6.990;2024-02-15T00:46:02;10.15;;;2.95;;
68089;SDS011;54880;50.986;6.990;2024-02-15T00:48:27;10.18;;;3.30;;
68089;SDS011;54880;50.986;6.990;2024-02-15T00:50:57;7.78;;;3.13;;
68089;SDS011;54880;50.986;6.990;2024-02-15T00:53:23;7.23;;;3.00;;
68089;SDS011;54880;50.986;6.990;2024-02-15T00:55:48;8.13;;;3.00;;
68089;SDS011;54880;50.986;6.990;2024-02-15T00:58:13;11.20;;;3.27;;
68089;SDS011;54880;50.986;6.990;2024-02-15T01:00:39;7.60;;;3.27;;
68089;SDS011;54880;50.986;6.990;2024-02-15T01:03:04;8.13;;;3.17;;
68089;SDS011;54880;50.986;6.990;2024-02-15T01:05:29;9.87;;;3.63;;
68089;SDS011;54880;50.986;6.990;2024-02-15T01:07:55;9.03;;;3.50;;
68089;SDS011;54880;50.986;6.990;2024-02-15T01:10:20;9.73;;;3.20;;
68089;SDS011;54880;50.986;6.990;2024-02-15T01:12:46;11.60;;;3.60;;
68089;SDS011;54880;50.986;6.990;2024-02-15T01:15:11;9.97;;;3.30;;
68089;SDS011;54880;50.986;6.990;2024-02-15T01:17:36;8.50;;;3.33;;
68089;SDS011;54880;50.986;6.990;2024-02-15T01:20:02;8.97;;;3.43;;
68089;SDS011;54880;50.986;6.990;2024-02-15T01:22:27;7.90;;;3.30;;
68089;SDS011;54880;50.986;6.990;2024-02-15T01:24:53;6.87;;;3.37;;
68089;SDS011;54880;50.986;6.990;2024-02-15T01:27:18;8.87;;;3.27;;
68089;SDS011;54880;50.986;6.990;2024-02-15T01:29:43;10.40;;;4.10;;
68089;SDS011;54880;50.986;6.990;2024-02-15T01:32:08;10.40;;;3.60;;
68089;SDS011;54880;50.986;6.990;2024-02-15T01:34:34;8.75;;;3.40;;
68089;SDS011;54880;50.986;6.990;2024-02-15T01:36:59;8.20;;;3.20;;
68089;SDS011;54880;50.986;6.990;2024-02-15T01:39:24;8.23;;;3.60;;
68089;SDS011;54880;50.986;6.990;2024-02-15T01:41:49;9.63;;;3.17;;
68089;SDS011;54880;50.986;6.990;2024-02-15T01:44:21;7.97;;;3.60;;
68089;SDS011;54880;50.986;6.990;2024-02-15T01:46:49;8.10;;;2.97;;
68089;SDS011;54880;50.986;6.990;2024-02-15T01:49:17;9.77;;;3.47;;
68089;SDS011;54880;50.986;6.990;2024-02-15T01:51:42;8.60;;;3.10;;
68089;SDS011;54880;50.986;6.990;2024-02-15T01:54:08;8.93;;;3.10;;
68089;SDS011;54880;50.986;6.990;2024-02-15T01:56:34;7.88;;;3.15;;
68089;SDS011;54880;50.986;6.990;2024-02-15T01:58:59;8.30;;;3.23;;
68089;SDS011;54880;50.986;6.990;2024-02-15T02:01:27;8.70;;;3.00;;
68089;SDS011;54880;50.986;6.990;2024-02-15T02:03:52;8.48;;;2.90;;
68089;SDS011;54880;50.986;6.990;2024-02-15T02:06:17;8.47;;;2.63;;
68089;SDS011;54880;50.986;6.990;2024-02-15T02:08:43;8.43;;;3.00;;
68089;SDS011;54880;50.986;6.990;2024-02-15T02:11:08;8.43;;;3.20;;
68089;SDS011;54880;50.986;6.990;2024-02-15T02:13:33;8.73;;;2.67;;
68089;SDS011;54880;50.986;6.990;2024-02-15T02:15:58;8.67;;;2.90;;
68089;SDS011;54880;50.986;6.990;2024-02-15T02:18:25;7.38;;;3.30;;
68089;SDS011;54880;50.986;6.990;2024-02-15T02:20:50;10.63;;;2.80;;
68089;SDS011;54880;50.986;6.990;2024-02-15T02:23:16;8.77;;;2.87;;
68089;SDS011;54880;50.986;6.990;2024-02-15T02:25:44;7.63;;;2.50;;
68089;SDS011;54880;50.986;6.990;2024-02-15T02:28:09;9.43;;;2.83;;
68089;SDS011;54880;50.986;6.990;2024-02-15T02:30:35;7.18;;;2.70;;
68089;SDS011;54880;50.986;6.990;2024-02-15T02:33:00;7.27;;;2.83;;
68089;SDS011;54880;50.986;6.990;2024-02-15T02:35:26;9.90;;;2.70;;
68089;SDS011;54880;50.986;6.990;2024-02-15T02:37:53;9.63;;;2.88;;
68089;SDS011;54880;50.986;6.990;2024-02-15T02:40:18;7.10;;;2.50;;
68089;SDS011;54880;50.986;6.990;2024-02-15T02:42:50;5.90;;;2.40;;
68089;SDS011;54880;50.986;6.990;2024-02-15T02:45:20;7.53;;;2.47;;
68089;SDS011;54880;50.986;6.990;2024-02-15T02:47:47;8.73;;;2.83;;
68089;SDS011;54880;50.986;6.990;2024-02-15T02:50:13;7.87;;;2.27;;
68089;SDS011;54880;50.986;6.990;2024-02-15T02:52:38;6.70;;;2.80;;
68089;SDS011;54880;50.986;6.990;2024-02-15T02:55:04;8.23;;;2.87;;
68089;SDS011;54880;50.986;6.990;2024-02-15T02:57:36;7.63;;;2.70;;
68089;SDS011;54880;50.986;6.990;2024-02-15T03:00:07;8.32;;;3.13;;
68089;SDS011;54880;50.986;6.990;2024-02-15T03:02:36;10.30;;;3.77;;
68089;SDS011;54880;50.986;6.990;2024-02-15T03:05:03;8.15;;;3.22;;
68089;SDS011;54880;50.986;6.990;2024-02-15T03:07:29;7.95;;;3.15;;
68089;SDS011;54880;50.986;6.990;2024-02-15T03:09:54;7.37;;;3.03;;
68089;SDS011;54880;50.986;6.990;2024-02-15T03:12:19;9.07;;;3.33;;
68089;SDS011;54880;50.986;6.990;2024-02-15T03:14:44;14.57;;;4.50;;
68089;SDS011;54880;50.986;6.990;2024-02-15T03:17:10;9.27;;;3.25;;
68089;SDS011;54880;50.986;6.990;2024-02-15T03:19:36;8.47;;;3.07;;
68089;SDS011;54880;50.986;6.990;2024-02-15T03:22:01;9.70;;;3.57;;
68089;SDS011;54880;50.986;6.990;2024-02-15T03:24:26;8.17;;;2.93;;
68089;SDS011;54880;50.986;6.990;2024-02-15T03:26:51;8.53;;;3.00;;
68089;SDS011;54880;50.986;6.990;2024-02-15T03:29:17;7.80;;;3.10;;
68089;SDS011;54880;50.986;6.990;2024-02-15T03:31:42;11.20;;;2.90;;
68089;SDS011;54880;50.986;6.990;2024-02-15T03:34:08;7.40;;;2.73;;
68089;SDS011;54880;50.986;6.990;2024-02-15T03:36:36;8.07;;;2.88;;
68089;SDS011;54880;50.986;6.990;2024-02-15T03:39:01;11.27;;;2.90;;
68089;SDS011;54880;50.986;6.990;2024-02-15T03:41:29;7.20;;;2.77;;
68089;SDS011;54880;50.986;6.990;2024-02-15T03:43:58;9.30;;;2.80;;
68089;SDS011;54880;50.986;6.990;2024-02-15T03:46:25;8.25;;;2.72;;
68089;SDS011;54880;50.986;6.990;2024-02-15T03:48:50;9.13;;;2.83;;
68089;SDS011;54880;50.986;6.990;2024-02-15T03:51:19;11.40;;;3.05;;
68089;SDS011;54880;50.986;6.990;2024-02-15T03:53:45;8.80;;;3.00;;
68089;SDS011;54880;50.986;6.990;2024-02-15T03:56:11;9.53;;;2.40;;
68089;SDS011;54880;50.986;6.990;2024-02-15T03:58:36;8.97;;;3.20;;
68089;SDS011;54880;50.986;6.990;2024-02-15T04:01:03;9.10;;;2.47;;
68089;SDS011;54880;50.986;6.990;2024-02-15T04:03:31;7.15;;;2.35;;
68089;SDS011;54880;50.986;6.990;2024-02-15T04:05:57;6.97;;;2.50;;
68089;SDS011;54880;50.986;6.990;2024-02-15T04:08:23;7.65;;;2.25;;
68089;SDS011;54880;50.986;6.990;2024-02-15T04:10:48;9.03;;;2.37;;
68089;SDS011;54880;50.986;6.990;2024-02-15T04:13:14;9.33;;;2.30;;
68089;SDS011;54880;50.986;6.990;2024-02-15T04:15:39;9.33;;;2.57;;
68089;SDS011;54880;50.986;6.990;2024-02-15T04:18:04;8.17;;;2.57;;
68089;SDS011;54880;50.986;6.990;2024-02-15T04:20:30;5.65;;;2.40;;
68089;SDS011;54880;50.986;6.990;2024-02-15T04:22:55;9.13;;;2.60;;
68089;SDS011;54880;50.986;6.990;2024-02-15T04:25:23;9.25;;;2.80;;
68089;SDS011;54880;50.986;6.990;2024-02-15T04:27:52;6.93;;;2.40;;
68089;SDS011;54880;50.986;6.990;2024-02-15T04:30:18;5.97;;;2.55;;
68089;SDS011;54880;50.986;6.990;2024-02-15T04:32:43;10.07;;;2.25;;
68089;SDS011;54880;50.986;6.990;2024-02-15T04:35:08;8.83;;;2.40;;
68089;SDS011;54880;50.986;6.990;2024-02-15T04:37:35;8.07;;;2.10;;
68089;SDS011;54880;50.986;6.990;2024-02-15T04:40:02;7.53;;;2.28;;
68089;SDS011;54880;50.986;6.990;2024-02-15T04:42:34;8.23;;;2.50;;
68089;SDS011;54880;50.986;6.990;2024-02-15T04:45:02;7.47;;;2.30;;
68089;SDS011;54880;50.986;6.990;2024-02-15T04:47:27;9.23;;;2.30;;
68089;SDS011;54880;50.986;6.990;2024-02-15T04:49:52;8.83;;;2.60;;
68089;SDS011;54880;50.986;6.990;2024-02-15T04:52:18;9.53;;;2.70;;
68089;SDS011;54880;50.986;6.990;2024-02-15T04:54:43;9.10;;;2.40;;
68089;SDS011;54880;50.986;6.990;2024-02-15T04:57:09;8.05;;;2.13;;
68089;SDS011;54880;50.986;6.990;2024-02-15T04:59:36;6.97;;;2.38;;
68089;SDS011;54880;50.986;6.990;2024-02-15T05:02:02;5.90;;;2.20;;
68089;SDS011;54880;50.986;6.990;2024-02-15T05:04:27;6.40;;;2.50;;
68089;SDS011;54880;50.986;6.990;2024-02-15T05:06:52;9.13;;;2.37;;
68089;SDS011;54880;50.986;6.990;2024-02-15T05:09:18;7.00;;;2.40;;
68089;SDS011;54880;50.986;6.990;2024-02-15T05:11:43;9.63;;;3.23;;
68089;SDS011;54880;50.986;6.990;2024-02-15T05:14:13;9.60;;;3.05;;
68089;SDS011;54880;50.986;6.990;2024-02-15T05:16:43;11.60;;;2.63;;
68089;SDS011;54880;50.986;6.990;2024-02-15T05:19:09;7.87;;;2.10;;
68089;SDS011;54880;50.986;6.990;2024-02-15T05:21:36;11.13;;;2.22;;
68089;SDS011;54880;50.986;6.990;2024-02-15T05:24:02;9.55;;;3.08;;
68089;SDS011;54880;50.986;6.990;2024-02-15T05:26:28;8.47;;;2.83;;
68089;SDS011;54880;50.986;6.990;2024-02-15T05:28:53;8.07;;;2.40;;
68089;SDS011;54880;50.986;6.990;2024-02-15T05:31:19;8.00;;;2.10;;
68089;SDS011;54880;50.986;6.990;2024-02-15T05:33:45;7.90;;;2.25;;
68089;SDS011;54880;50.986;6.990;2024-02-15T05:36:15;7.15;;;2.40;;
68089;SDS011;54880;50.986;6.990;2024-02-15T05:38:41;7.77;;;2.40;;
68089;SDS011;54880;50.986;6.990;2024-02-15T05:41:10;11.57;;;2.60;;
68089;SDS011;54880;50.986;6.990;2024-02-15T05:43:36;8.23;;;2.55;;
68089;SDS011;54880;50.986;6.990;2024-02-15T05:46:04;11.00;;;2.73;;
68089;SDS011;54880;50.986;6.990;2024-02-15T05:48:32;7.85;;;2.70;;
68089;SDS011;54880;50.986;6.990;2024-02-15T05:51:00;7.90;;;2.40;;
68089;SDS011;54880;50.986;6.990;2024-02-15T05:53:25;12.53;;;2.63;;
68089;SDS011;54880;50.986;6.990;2024-02-15T05:55:51;9.47;;;2.80;;
68089;SDS011;54880;50.986;6.990;2024-02-15T05:58:16;9.57;;;2.67;;
68089;SDS011;54880;50.986;6.990;2024-02-15T06:00:42;7.82;;;2.33;;
68089;SDS011;54880;50.986;6.990;2024-02-15T06:03:07;9.87;;;2.33;;
68089;SDS011;54880;50.986;6.990;2024-02-15T06:05:34;8.10;;;2.50;;
68089;SDS011;54880;50.986;6.990;2024-02-15T06:07:59;14.70;;;3.33;;
68089;SDS011;54880;50.986;6.990;2024-02-15T06:10:25;8.87;;;2.33;;
68089;SDS011;54880;50.986;6.990;2024-02-15T06:12:50;9.90;;;2.65;;
68089;SDS011;54880;50.986;6.990;2024-02-15T06:15:16;6.32;;;2.78;;
68089;SDS011;54880;50.986;6.990;2024-02-15T06:17:41;8.23;;;2.30;;
68089;SDS011;54880;50.986;6.990;2024-02-15T06:20:10;8.52;;;2.58;;
68089;SDS011;54880;50.986;6.990;2024-02-15T06:22:37;8.63;;;2.20;;
68089;SDS011;54880;50.986;6.990;2024-02-15T06:25:03;9.18;;;2.67;;
68089;SDS011;54880;50.986;6.990;2024-02-15T06:27:28;13.18;;;2.60;;
68089;SDS011;54880;50.986;6.990;2024-02-15T06:29:54;10.13;;;2.78;;
68089;SDS011;54880;50.986;6.990;2024-02-15T06:32:37;11.02;;;2.70;;
68089;SDS011;54880;50.986;6.990;2024-02-15T06:35:21;8.20;;;2.40;;
68089;SDS011;54880;50.986;6.990;2024-02-15T06:38:05;8.93;;;2.65;;
68089;SDS011;54880;50.986;6.990;2024-02-15T06:40:49;7.53;;;2.30;;
68089;SDS011;54880;50.986;6.990;2024-02-15T06:43:14;10.07;;;2.90;;
68089;SDS011;54880;50.986;6.990;2024-02-15T06:45:41;10.07;;;2.67;;
68089;SDS011;54880;50.986;6.990;2024-02-15T06:48:11;8.10;;;3.03;;
68089;SDS011;54880;50.986;6.990;2024-02-15T06:50:37;9.70;;;2.67;;
68089;SDS011;54880;50.986;6.990;2024-02-15T06:53:02;8.37;;;2.43;;
68089;SDS011;54880;50.986;6.990;2024-02-15T06:55:28;9.30;;;2.23;;
68089;SDS011;54880;50.986;6.990;2024-02-15T06:57:53;8.33;;;2.60;;
68089;SDS011;54880;50.986;6.990;2024-02-15T07:00:20;10.10;;;2.75;;
68089;SDS011;54880;50.986;6.990;2024-02-15T07:02:45;9.10;;;2.53;;
68089;SDS011;54880;50.986;6.990;2024-02-15T07:05:10;10.90;;;2.73;;
68089;SDS011;54880;50.986;6.990;2024-02-15T07:07:36;10.90;;;2.70;;
68089;SDS011;54880;50.986;6.990;2024-02-15T07:10:01;7.55;;;2.40;;
68089;SDS011;54880;50.986;6.990;2024-02-15T07:12:28;9.63;;;2.40;;
68089;SDS011;54880;50.986;6.990;2024-02-15T07:14:53;8.57;;;2.67;;
68089;SDS011;54880;50.986;6.990;2024-02-15T07:17:19;9.10;;;2.92;;
68089;SDS011;54880;50.986;6.990;2024-02-15T07:19:45;7.60;;;2.35;;
68089;SDS011;54880;50.986;6.990;2024-02-15T07:22:10;11.68;;;2.97;;
68089;SDS011;54880;50.986;6.990;2024-02-15T07:24:36;9.23;;;2.77;;
68089;SDS011;54880;50.986;6.990;2024-02-15T07:27:03;8.25;;;2.60;;
68089;SDS011;54880;50.986;6.990;2024-02-15T07:29:29;10.43;;;2.95;;
68089;SDS011;54880;50.986;6.990;2024-02-15T07:31:56;9.95;;;2.60;;
68089;SDS011;54880;50.986;6.990;2024-02-15T07:34:22;14.90;;;2.83;;
68089;SDS011;54880;50.986;6.990;2024-02-15T07:36:47;13.37;;;2.70;;
68089;SDS011;54880;50.986;6.990;2024-02-15T07:39:13;9.47;;;2.50;;
68089;SDS011;54880;50.986;6.990;2024-02-15T07:41:48;7.23;;;2.90;;
68089;SDS011;54880;50.986;6.990;2024-02-15T07:44:14;7.82;;;2.70;;
68089;SDS011;54880;50.986;6.990;2024-02-15T07:46:39;10.23;;;2.73;;
68089;SDS011;54880;50.986;6.990;2024-02-15T07:49:05;10.15;;;3.10;;
68089;SDS011;54880;50.986;6.990;2024-02-15T07:51:31;10.68;;;2.97;;
68089;SDS011;54880;50.986;6.990;2024-02-15T07:53:57;15.27;;;2.90;;
68089;SDS011;54880;50.986;6.990;2024-02-15T07:56:22;13.47;;;3.30;;
68089;SDS011;54880;50.986;6.990;2024-02-15T07:58:48;11.73;;;3.27;;
68089;SDS011;54880;50.986;6.990;2024-02-15T08:01:14;8.47;;;2.73;;
68089;SDS011;54880;50.986;6.990;2024-02-15T08:03:39;13.63;;;2.75;;
68089;SDS011;54880;50.986;6.990;2024-02-15T08:06:10;8.85;;;3.00;;
68089;SDS011;54880;50.986;6.990;2024-02-15T08:08:37;9.30;;;3.20;;
68089;SDS011;54880;50.986;6.990;2024-02-15T08:11:03;9.53;;;3.00;;
68089;SDS011;54880;50.986;6.990;2024-02-15T08:13:28;9.30;;;3.10;;
68089;SDS011;54880;50.986;6.990;2024-02-15T08:15:54;9.57;;;3.08;;
68089;SDS011;54880;50.986;6.990;2024-02-15T08:18:20;11.17;;;3.20;;
68089;SDS011;54880;50.986;6.990;2024-02-15T08:20:45;11.20;;;3.23;;
68089;SDS011;54880;50.986;6.990;2024-02-15T08:23:10;12.17;;;3.30;;
68089;SDS011;54880;50.986;6.990;2024-02-15T08:25:37;14.00;;;3.20;;
68089;SDS011;54880;50.986;6.990;2024-02-15T08:28:03;10.95;;;3.45;;
68089;SDS011;54880;50.986;6.990;2024-02-15T08:30:30;10.27;;;3.35;;
68089;SDS011;54880;50.986;6.990;2024-02-15T08:32:55;10.97;;;3.40;;
68089;SDS011;54880;50.986;6.990;2024-02-15T08:35:20;9.17;;;3.30;;
68089;SDS011;54880;50.986;6.990;2024-02-15T08:37:46;9.90;;;3.00;;
68089;SDS011;54880;50.986;6.990;2024-02-15T08:40:13;12.75;;;3.30;;
68089;SDS011;54880;50.986;6.990;2024-02-15T08:42:42;10.82;;;2.88;;
68089;SDS011;54880;50.986;6.990;2024-02-15T08:45:08;10.87;;;3.07;;
68089;SDS011;54880;50.986;6.990;2024-02-15T08:47:37;9.32;;;3.20;;
68089;SDS011;54880;50.986;6.990;2024-02-15T08:50:03;9.93;;;3.80;;
68089;SDS011;54880;50.986;6.990;2024-02-15T08:52:28;10.07;;;3.43;;
68089;SDS011;54880;50.986;6.990;2024-02-15T08:54:53;12.47;;;4.17;;
68089;SDS011;54880;50.986;6.990;2024-02-15T08:57:20;11.70;;;3.72;;
68089;SDS011;54880;50.986;6.990;2024-02-15T08:59:46;10.88;;;3.88;;
68089;SDS011;54880;50.986;6.990;2024-02-15T09:02:12;10.93;;;3.90;;
68089;SDS011;54880;50.986;6.990;2024-02-15T09:04:39;10.98;;;3.72;;
68089;SDS011;54880;50.986;6.990;2024-02-15T09:07:06;13.63;;;4.10;;
68089;SDS011;54880;50.986;6.990;2024-02-15T09:09:32;10.52;;;3.17;;
68089;SDS011;54880;50.986;6.990;2024-02-15T09:12:00;15.43;;;4.25;;
68089;SDS011;54880;50.986;6.990;2024-02-15T09:14:25;10.45;;;3.50;;
68089;SDS011;54880;50.986;6.990;2024-02-15T09:16:51;10.83;;;3.53;;
68089;SDS011;54880;50.986;6.990;2024-02-15T09:19:16;12.47;;;3.30;;
68089;SDS011;54880;50.986;6.990;2024-02-15T09:21:41;9.67;;;2.93;;
68089;SDS011;54880;50.986;6.990;2024-02-15T09:24:06;10.03;;;3.40;;
68089;SDS011;54880;50.986;6.990;2024-02-15T09:26:32;11.27;;;2.50;;
68089;SDS011;54880;50.986;6.990;2024-02-15T09:28:57;8.77;;;2.70;;
68089;SDS011;54880;50.986;6.990;2024-02-15T09:31:22;10.00;;;2.60;;
68089;SDS011;54880;50.986;6.990;2024-02-15T09:33:49;13.20;;;2.83;;
68089;SDS011;54880;50.986;6.990;2024-02-15T09:36:15;9.43;;;2.80;;
68089;SDS011;54880;50.986;6.990;2024-02-15T09:38:41;8.75;;;2.30;;
68089;SDS011;54880;50.986;6.990;2024-02-15T09:41:06;9.17;;;2.23;;
68089;SDS011;54880;50.986;6.990;2024-02-15T09:43:32;12.07;;;2.90;;
68089;SDS011;54880;50.986;6.990;2024-02-15T09:45:58;13.77;;;2.70;;
68089;SDS011;54880;50.986;6.990;2024-02-15T09:48:25;10.03;;;2.60;;
68089;SDS011;54880;50.986;6.990;2024-02-15T09:50:51;9.95;;;2.30;;
68089;SDS011;54880;50.986;6.990;2024-02-15T09:53:18;10.50;;;2.73;;
68089;SDS011;54880;50.986;6.990;2024-02-15T09:55:46;12.70;;;2.83;;
68089;SDS011;54880;50.986;6.990;2024-02-15T09:58:11;8.17;;;2.97;;
68089;SDS011;54880;50.986;6.990;2024-02-15T10:00:37;8.48;;;2.75;;
68089;SDS011;54880;50.986;6.990;2024-02-15T10:03:05;8.87;;;2.30;;
68089;SDS011;54880;50.986;6.990;2024-02-15T10:05:30;8.27;;;2.33;;
68089;SDS011;54880;50.986;6.990;2024-02-15T10:07:56;9.63;;;2.60;;
68089;SDS011;54880;50.986;6.990;2024-02-15T10:10:22;16.77;;;2.97;;
68089;SDS011;54880;50.986;6.990;2024-02-15T10:12:51;7.10;;;2.45;;
68089;SDS011;54880;50.986;6.990;2024-02-15T10:18:01;8.80;;;2.60;;
68089;SDS011;54880;50.986;6.990;2024-02-15T10:20:27;6.60;;;1.90;;
68089;SDS011;54880;50.986;6.990;2024-02-15T10:22:53;7.30;;;2.10;;
68089;SDS011;54880;50.986;6.990;2024-02-15T10:25:33;8.32;;;2.13;;
68089;SDS011;54880;50.986;6.990;2024-02-15T10:28:02;10.13;;;2.50;;
68089;SDS011;54880;50.986;6.990;2024-02-15T10:30:28;8.68;;;2.40;;
68089;SDS011;54880;50.986;6.990;2024-02-15T10:32:54;8.00;;;2.23;;
68089;SDS011;54880;50.986;6.990;2024-02-15T10:35:22;9.18;;;2.28;;
68089;SDS011;54880;50.986;6.990;2024-02-15T10:37:47;10.07;;;2.35;;
68089;SDS011;54880;50.986;6.990;2024-02-15T10:40:14;9.57;;;2.20;;
68089;SDS011;54880;50.986;6.990;2024-02-15T10:42:42;8.60;;;2.35;;
68089;SDS011;54880;50.986;6.990;2024-02-15T10:45:08;9.93;;;2.35;;
68089;SDS011;54880;50.986;6.990;2024-02-15T10:47:37;6.97;;;2.00;;
68089;SDS011;54880;50.986;6.990;2024-02-15T10:50:02;9.13;;;2.40;;
68089;SDS011;54880;50.986;6.990;2024-02-15T10:52:30;8.70;;;1.90;;
68089;SDS011;54880;50.986;6.990;2024-02-15T10:54:59;7.03;;;2.30;;
68089;SDS011;54880;50.986;6.990;2024-02-15T10:57:28;11.83;;;2.40;;
68089;SDS011;54880;50.986;6.990;2024-02-15T10:59:56;6.75;;;2.50;;
68089;SDS011;54880;50.986;6.990;2024-02-15T11:04:51;7.40;;;2.13;;
68089;SDS011;54880;50.986;6.990;2024-02-15T11:07:19;8.10;;;2.28;;
68089;SDS011;54880;50.986;6.990;2024-02-15T11:09:44;7.20;;;1.87;;
68089;SDS011;54880;50.986;6.990;2024-02-15T11:12:10;6.57;;;2.03;;
68089;SDS011;54880;50.986;6.990;2024-02-15T11:14:36;6.22;;;1.80;;
68089;SDS011;54880;50.986;6.990;2024-02-15T11:17:02;7.50;;;2.10;;
68089;SDS011;54880;50.986;6.990;2024-02-15T11:21:57;5.87;;;1.90;;
68089;SDS011;54880;50.986;6.990;2024-02-15T11:26:52;8.13;;;1.90;;
68089;SDS011;54880;50.986;6.990;2024-02-15T11:32:06;6.47;;;1.63;;
68089;SDS011;54880;50.986;6.990;2024-02-15T11:34:44;7.47;;;2.00;;
68089;SDS011;54880;50.986;6.990;2024-02-15T11:37:42;11.13;;;2.15;;
68089;SDS011;54880;50.986;6.990;2024-02-15T11:39:59;8.10;;;1.83;;
68089;SDS011;54880;50.986;6.990;2024-02-15T11:42:24;6.90;;;1.83;;
68089;SDS011;54880;50.986;6.990;2024-02-15T11:44:55;7.60;;;1.80;;
68089;SDS011;54880;50.986;6.990;2024-02-15T11:47:30;8.73;;;2.00;;
68089;SDS011;54880;50.986;6.990;2024-02-15T11:49:59;9.50;;;2.28;;
68089;SDS011;54880;50.986;6.990;2024-02-15T11:52:24;7.50;;;1.87;;
68089;SDS011;54880;50.986;6.990;2024-02-15T11:54:49;9.43;;;2.20;;
68089;SDS011;54880;50.986;6.990;2024-02-15T11:57:15;8.27;;;2.00;;
68089;SDS011;54880;50.986;6.990;2024-02-15T11:59:47;8.23;;;1.80;;
68089;SDS011;54880;50.986;6.990;2024-02-15T12:02:21;8.52;;;2.30;;
68089;SDS011;54880;50.986;6.990;2024-02-15T12:05:05;9.73;;;2.00;;
68089;SDS011;54880;50.986;6.990;2024-02-15T12:07:50;8.18;;;2.13;;
68089;SDS011;54880;50.986;6.990;2024-02-15T12:10:34;6.63;;;2.10;;
68089;SDS011;54880;50.986;6.990;2024-02-15T12:13:18;6.95;;;1.88;;
68089;SDS011;54880;50.986;6.990;2024-02-15T12:16:02;7.45;;;2.15;;
68089;SDS011;54880;50.986;6.990;2024-02-15T12:18:46;6.18;;;1.80;;
68089;SDS011;54880;50.986;6.990;2024-02-15T12:21:18;6.75;;;1.90;;
68089;SDS011;54880;50.986;6.990;2024-02-15T12:23:44;9.67;;;2.30;;
68089;SDS011;54880;50.986;6.990;2024-02-15T12:26:10;7.68;;;1.88;;
68089;SDS011;54880;50.986;6.990;2024-02-15T12:28:39;7.60;;;1.90;;
68089;SDS011;54880;50.986;6.990;2024-02-15T12:31:04;7.90;;;2.07;;
68089;SDS011;54880;50.986;6.990;2024-02-15T12:33:31;9.25;;;2.25;;
68089;SDS011;54880;50.986;6.990;2024-02-15T12:36:04;6.65;;;2.08;;
68089;SDS011;54880;50.986;6.990;2024-02-15T12:38:33;8.33;;;2.03;;
68089;SDS011;54880;50.986;6.990;2024-02-15T12:41:19;8.32;;;1.70;;
68089;SDS011;54880;50.986;6.990;2024-02-15T12:43:44;9.27;;;2.28;;
68089;SDS011;54880;50.986;6.990;2024-02-15T12:46:09;7.10;;;1.90;;
68089;SDS011;54880;50.986;6.990;2024-02-15T12:48:34;7.43;;;2.07;;
68089;SDS011;54880;50.986;6.990;2024-02-15T12:51:12;6.68;;;1.85;;
68089;SDS011;54880;50.986;6.990;2024-02-15T12:53:37;7.68;;;1.80;;
68089;SDS011;54880;50.986;6.990;2024-02-15T12:56:02;7.87;;;2.13;;
68089;SDS011;54880;50.986;6.990;2024-02-15T12:58:29;9.97;;;2.27;;
68089;SDS011;54880;50.986;6.990;2024-02-15T13:00:55;6.80;;;1.85;;
68089;SDS011;54880;50.986;6.990;2024-02-15T13:03:23;6.85;;;1.98;;
68089;SDS011;54880;50.986;6.990;2024-02-15T13:05:49;6.10;;;1.83;;
68089;SDS011;54880;50.986;6.990;2024-02-15T13:08:14;7.33;;;1.87;;
68089;SDS011;54880;50.986;6.990;2024-02-15T13:10:41;8.60;;;1.65;;
68089;SDS011;54880;50.986;6.990;2024-02-15T13:13:06;7.27;;;2.03;;
68089;SDS011;54880;50.986;6.990;2024-02-15T13:15:32;7.18;;;2.08;;
68089;SDS011;54880;50.986;6.990;2024-02-15T13:18:02;8.60;;;1.85;;
68089;SDS011;54880;50.986;6.990;2024-02-15T13:20:30;6.60;;;1.70;;
68089;SDS011;54880;50.986;6.990;2024-02-15T13:25:30;9.50;;;2.08;;
68089;SDS011;54880;50.986;6.990;2024-02-15T13:27:55;8.25;;;2.40;;
68089;SDS011;54880;50.986;6.990;2024-02-15T13:30:22;8.10;;;2.20;;
68089;SDS011;54880;50.986;6.990;2024-02-15T13:32:52;8.60;;;2.10;;
68089;SDS011;54880;50.986;6.990;2024-02-15T13:35:17;6.22;;;1.60;;
68089;SDS011;54880;50.986;6.990;2024-02-15T13:37:48;9.02;;;2.20;;
68089;SDS011;54880;50.986;6.990;2024-02-15T13:40:14;9.80;;;2.25;;
68089;SDS011;54880;50.986;6.990;2024-02-15T13:45:12;7.63;;;2.10;;
68089;SDS011;54880;50.986;6.990;2024-02-15T13:47:38;9.20;;;2.50;;
68089;SDS011;54880;50.986;6.990;2024-02-15T13:50:04;7.87;;;2.10;;
68089;SDS011;54880;50.986;6.990;2024-02-15T13:52:30;7.30;;;2.50;;
68089;SDS011;54880;50.986;6.990;2024-02-15T13:54:56;8.25;;;2.30;;
68089;SDS011;54880;50.986;6.990;2024-02-15T13:57:21;9.13;;;2.40;;
68089;SDS011;54880;50.986;6.990;2024-02-15T13:59:48;7.97;;;1.95;;
68089;SDS011;54880;50.986;6.990;2024-02-15T14:02:13;8.17;;;2.17;;
68089;SDS011;54880;50.986;6.990;2024-02-15T14:04:39;8.30;;;1.80;;
68089;SDS011;54880;50.986;6.990;2024-02-15T14:07:05;8.32;;;1.88;;
68089;SDS011;54880;50.986;6.990;2024-02-15T14:09:30;7.73;;;1.80;;
68089;SDS011;54880;50.986;6.990;2024-02-15T14:11:55;7.47;;;1.83;;
68089;SDS011;54880;50.986;6.990;2024-02-15T14:14:22;7.63;;;1.70;;
68089;SDS011;54880;50.986;6.990;2024-02-15T14:16:47;6.30;;;1.60;;
68089;SDS011;54880;50.986;6.990;2024-02-15T14:19:12;7.80;;;2.17;;
68089;SDS011;54880;50.986;6.990;2024-02-15T14:21:38;10.50;;;1.80;;
68089;SDS011;54880;50.986;6.990;2024-02-15T14:24:05;6.40;;;1.75;;
68089;SDS011;54880;50.986;6.990;2024-02-15T14:26:32;6.35;;;1.60;;
68089;SDS011;54880;50.986;6.990;2024-02-15T14:28:57;5.27;;;1.60;;
68089;SDS011;54880;50.986;6.990;2024-02-15T14:31:22;6.87;;;1.43;;
68089;SDS011;54880;50.986;6.990;2024-02-15T14:34:06;6.93;;;1.98;;
68089;SDS011;54880;50.986;6.990;2024-02-15T14:36:32;5.60;;;1.50;;
68089;SDS011;54880;50.986;6.990;2024-02-15T14:38:57;9.53;;;1.77;;
68089;SDS011;54880;50.986;6.990;2024-02-15T14:41:22;6.17;;;1.70;;
68089;SDS011;54880;50.986;6.990;2024-02-15T14:43:48;8.40;;;1.80;;
68089;SDS011;54880;50.986;6.990;2024-02-15T14:46:13;7.07;;;1.67;;
68089;SDS011;54880;50.986;6.990;2024-02-15T14:48:38;5.50;;;1.70;;
68089;SDS011;54880;50.986;6.990;2024-02-15T14:51:05;6.87;;;1.80;;
68089;SDS011;54880;50.986;6.990;2024-02-15T14:53:30;7.13;;;1.53;;
68089;SDS011;54880;50.986;6.990;2024-02-15T14:55:55;5.57;;;1.48;;
68089;SDS011;54880;50.986;6.990;2024-02-15T14:58:21;6.25;;;1.85;;
68089;SDS011;54880;50.986;6.990;2024-02-15T15:00:47;7.85;;;2.00;;
68089;SDS011;54880;50.986;6.990;2024-02-15T15:03:12;8.30;;;2.00;;